Time;durP1;ratioP1;P1;durP2;ratioP2;P2;SDS_P1;SDS_P2;PMS_P1;PMS_P2;Temp;Humidity;BMP_temperature;BMP_pressure;BME280_temperature;BME280_humidity;BME280_pressure;Samples;Min_cycle;Max_cycle;Signal;HPM_P1;HPM_P2
2023/11/05 00:01:51;;;;;;;0.10;0.10;;;;;;;6.14;100.00;98848.34;4916425;29;20059;-70
2023/11/05 00:04:18;;;;;;;0.10;0.10;;;;;;;6.18;100.00;98855.69;4929631;28;20323;-69
2023/11/05 00:06:45;;;;;;;0.10;0.10;;;;;;;6.21;100.00;98838.84;4919261;29;20055;-70
2023/11/05 00:09:12;;;;;;;0.10;0.10;;;;;;;6.21;100.00;98840.72;4917370;29;20191;-69
2023/11/05 00:11:38;;;;;;;0.10;0.10;;;;;;;6.24;100.00;98823.91;4921383;29;21069;-70
2023/11/05 00:14:04;;;;;;;0.10;0.10;;;;;;;6.23;100.00;98817.66;4921449;29;20147;-69
2023/11/05 00:16:31;;;;;;;0.10;0.10;;;;;;;6.26;100.00;98827.19;4921349;29;20075;-69
2023/11/05 00:18:57;;;;;;;0.10;0.10;;;;;;;6.25;100.00;98814.69;4924351;28;20659;-71
2023/11/05 00:21:23;;;;;;;0.10;0.10;;;;;;;6.26;100.00;98800.03;4920218;29;20101;-70
2023/11/05 00:23:51;;;;;;;0.10;0.10;;;;;;;6.29;100.00;98807.63;4922302;29;20158;-69
2023/11/05 00:26:17;;;;;;;0.10;0.10;;;;;;;6.32;100.00;98803.53;4920568;29;20055;-69
2023/11/05 00:28:49;;;;;;;0.10;0.10;;;;;;;6.32;100.00;98801.66;4917890;28;20125;-70
2023/11/05 00:31:16;;;;;;;0.10;0.10;;;;;;;6.32;100.00;98800.81;4921636;29;20064;-70
2023/11/05 00:33:42;;;;;;;0.10;0.10;;;;;;;6.33;100.00;98803.28;4920712;28;20487;-70
2023/11/05 00:36:09;;;;;;;0.10;0.10;;;;;;;6.36;100.00;98793.78;4919665;29;20067;-70
2023/11/05 00:38:35;;;;;;;0.00;0.00;;;;;;;6.37;100.00;98770.97;4919851;29;20514;-70
2023/11/05 00:41:03;;;;;;;0.10;0.10;;;;;;;6.36;100.00;98789.16;4935079;28;20047;-71
2023/11/05 00:43:30;;;;;;;0.10;0.10;;;;;;;6.37;100.00;98779.94;4918724;29;20644;-69
2023/11/05 00:45:56;;;;;;;0.10;0.10;;;;;;;6.34;100.00;98766.91;4919179;28;20147;-70
2023/11/05 00:48:22;;;;;;;0.10;0.10;;;;;;;6.37;100.00;98777.22;4919680;29;20178;-69
2023/11/05 00:50:48;;;;;;;0.10;0.10;;;;;;;6.40;100.00;98756.84;4918219;29;20114;-69
2023/11/05 00:53:15;;;;;;;0.10;0.10;;;;;;;6.42;100.00;98741.09;4919559;29;20050;-69
2023/11/05 00:55:41;;;;;;;0.10;0.10;;;;;;;6.43;100.00;98742.72;4921672;29;20431;-69
2023/11/05 00:58:08;;;;;;;0.10;0.10;;;;;;;6.45;100.00;98772.34;4921040;29;20074;-69
2023/11/05 01:00:35;;;;;;;0.10;0.10;;;;;;;6.45;100.00;98764.19;4921141;29;20047;-69
2023/11/05 01:03:01;;;;;;;0.00;0.00;;;;;;;6.43;100.00;98759.03;4920085;29;20067;-69
2023/11/05 01:05:27;;;;;;;0.10;0.10;;;;;;;6.43;100.00;98741.94;4920566;29;20059;-69
2023/11/05 01:07:53;;;;;;;0.10;0.10;;;;;;;6.43;100.00;98734.59;4916596;29;20105;-69
2023/11/05 01:10:20;;;;;;;0.10;0.10;;;;;;;6.42;100.00;98759.31;4920314;29;20048;-69
2023/11/05 01:12:47;;;;;;;0.10;0.10;;;;;;;6.39;100.00;98749.81;4921510;29;20473;-69
2023/11/05 01:15:14;;;;;;;0.10;0.10;;;;;;;6.38;100.00;98754.41;4923963;28;20135;-70
2023/11/05 01:17:40;;;;;;;0.10;0.10;;;;;;;6.41;100.00;98763.13;4918352;29;20071;-69
2023/11/05 01:20:08;;;;;;;0.10;0.10;;;;;;;6.42;100.00;98732.97;4918587;29;20519;-69
2023/11/05 01:22:35;;;;;;;0.10;0.10;;;;;;;6.45;100.00;98735.13;4921312;29;20098;-70
2023/11/05 01:25:01;;;;;;;0.10;0.10;;;;;;;6.46;100.00;98738.66;4923764;29;20688;-70
2023/11/05 01:27:30;;;;;;;0.10;0.10;;;;;;;6.46;100.00;98711.50;4922413;29;20071;-69
2023/11/05 01:29:56;;;;;;;0.10;0.10;;;;;;;6.49;100.00;98735.41;4918488;29;20577;-70
2023/11/05 01:32:23;;;;;;;0.10;0.10;;;;;;;6.50;100.00;98729.69;4921536;29;20159;-70
2023/11/05 01:34:50;;;;;;;0.10;0.10;;;;;;;6.47;100.00;98732.94;4922026;29;20054;-70
2023/11/05 01:37:16;;;;;;;0.10;0.10;;;;;;;6.47;100.00;98740.28;4933662;28;20434;-68
2023/11/05 01:39:42;;;;;;;0.15;0.10;;;;;;;6.47;100.00;98738.38;4919238;29;20483;-70
2023/11/05 01:42:08;;;;;;;0.10;0.10;;;;;;;6.51;100.00;98725.06;4918920;29;20454;-70
2023/11/05 01:44:34;;;;;;;0.10;0.10;;;;;;;6.57;100.00;98750.31;4917750;29;20100;-70
2023/11/05 01:47:01;;;;;;;0.10;0.10;;;;;;;6.56;100.00;98716.94;4919534;29;20048;-70
2023/11/05 01:49:28;;;;;;;0.10;0.10;;;;;;;6.61;100.00;98737.81;4913692;29;20534;-70
2023/11/05 01:51:55;;;;;;;0.10;0.10;;;;;;;6.65;100.00;98737.00;4918029;29;20479;-70
2023/11/05 01:54:22;;;;;;;0.10;0.10;;;;;;;6.69;100.00;98745.41;4918366;29;20075;-70
2023/11/05 01:56:48;;;;;;;0.10;0.10;;;;;;;6.69;100.00;98739.97;4917910;29;20142;-70
2023/11/05 01:59:14;;;;;;;0.10;0.10;;;;;;;6.70;100.00;98735.34;4916450;29;20518;-70
2023/11/05 02:01:42;;;;;;;0.10;0.10;;;;;;;6.74;100.00;98714.72;4918481;29;20142;-70
2023/11/05 02:04:09;;;;;;;0.10;0.10;;;;;;;6.78;100.00;98713.06;4917661;28;20051;-70
2023/11/05 02:06:37;;;;;;;0.10;0.10;;;;;;;6.85;100.00;98710.84;4918392;29;20059;-70
2023/11/05 02:09:03;;;;;;;0.10;0.10;;;;;;;6.88;100.00;98696.75;4919561;29;20059;-70
2023/11/05 02:11:29;;;;;;;0.10;0.10;;;;;;;6.89;100.00;98698.38;4918033;29;20055;-70
2023/11/05 02:13:56;;;;;;;0.10;0.10;;;;;;;6.86;100.00;98693.47;4918392;29;20138;-70
2023/11/05 02:16:25;;;;;;;0.00;0.00;;;;;;;6.90;100.00;98729.06;4917792;28;20423;-69
2023/11/05 02:18:52;;;;;;;0.10;0.10;;;;;;;6.90;100.00;98715.47;4919186;28;20359;-70
2023/11/05 02:21:24;;;;;;;0.10;0.10;;;;;;;6.90;100.00;98718.19;4919176;29;20426;-70
2023/11/05 02:23:52;;;;;;;0.10;0.10;;;;;;;6.97;100.00;98712.44;4919175;29;20063;-70
2023/11/05 02:26:18;;;;;;;;;;;;;;;6.95;100.00;98718.97;4918513;28;20324;-70
2023/11/05 02:28:44;;;;;;;0.10;0.10;;;;;;;6.95;100.00;98708.09;4917739;28;19927;-70
2023/11/05 02:31:10;;;;;;;0.10;0.10;;;;;;;6.99;100.00;98699.41;4901916;28;20135;-71
2023/11/05 02:33:41;;;;;;;0.10;0.10;;;;;;;6.98;100.00;98684.19;4902957;29;20083;-70
2023/11/05 02:36:08;;;;;;;0.10;0.10;;;;;;;7.01;100.00;98689.88;4919087;28;20055;-69
2023/11/05 02:38:35;;;;;;;0.10;0.10;;;;;;;7.03;100.00;98676.81;4920124;29;20048;-69
2023/11/05 02:41:03;;;;;;;0.10;0.10;;;;;;;7.06;99.98;98680.91;4919805;29;20054;-68
2023/11/05 02:43:29;;;;;;;0.10;0.10;;;;;;;7.09;100.00;98669.47;4934996;29;20048;-69
2023/11/05 02:45:55;;;;;;;0.10;0.10;;;;;;;7.10;99.75;98665.66;4915635;29;20099;-69
2023/11/05 02:48:21;;;;;;;0.10;0.10;;;;;;;7.11;99.59;98653.69;4917749;29;20134;-69
2023/11/05 02:50:48;;;;;;;0.10;0.10;;;;;;;7.13;99.63;98640.63;4919809;29;20052;-69
2023/11/05 02:53:15;;;;;;;0.80;0.10;;;;;;;7.14;99.75;98647.69;4918441;29;20066;-69
2023/11/05 02:55:41;;;;;;;;;;;;;;;7.17;99.44;98647.13;4916773;29;20096;-69
2023/11/05 02:58:11;;;;;;;0.10;0.10;;;;;;;7.20;99.24;98643.84;4933621;29;20380;-69
2023/11/05 03:00:37;;;;;;;0.10;0.10;;;;;;;7.22;99.13;98632.69;4926848;28;20545;-69
2023/11/05 03:03:03;;;;;;;0.10;0.10;;;;;;;7.20;99.16;98629.44;4921709;29;20056;-69
2023/11/05 03:05:29;;;;;;;0.00;0.00;;;;;;;7.28;99.01;98644.34;4919829;29;20043;-69
2023/11/05 03:07:55;;;;;;;0.10;0.10;;;;;;;7.32;99.06;98642.69;4918806;28;20068;-69
2023/11/05 03:10:22;;;;;;;0.10;0.10;;;;;;;7.36;98.86;98641.84;4919228;29;20062;-69
2023/11/05 03:12:48;;;;;;;0.52;0.10;;;;;;;7.37;98.24;98645.38;4920193;29;20048;-69
2023/11/05 03:15:16;;;;;;;0.10;0.10;;;;;;;7.45;98.54;98649.41;4901785;28;20074;-69
2023/11/05 03:17:41;;;;;;;;;;;;;;;7.46;98.17;98661.94;4919202;29;20468;-69
2023/11/05 03:20:08;;;;;;;0.10;0.10;;;;;;;7.47;98.11;98647.22;4922240;28;19958;-69
2023/11/05 03:22:34;;;;;;;0.10;0.10;;;;;;;7.50;97.95;98649.38;4921816;29;20080;-68
2023/11/05 03:25:00;;;;;;;0.10;0.10;;;;;;;7.52;97.62;98630.84;4921368;29;20506;-69
2023/11/05 03:27:27;;;;;;;0.00;0.00;;;;;;;7.54;97.69;98636.81;4926079;29;20052;-69
2023/11/05 03:29:53;;;;;;;0.10;0.10;;;;;;;7.57;97.63;98638.19;4924992;29;20047;-69
2023/11/05 03:32:20;;;;;;;0.10;0.10;;;;;;;7.57;97.64;98638.19;4905859;29;20423;-70
2023/11/05 03:34:47;;;;;;;0.10;0.10;;;;;;;7.59;97.29;98630.53;4906467;29;20458;-70
2023/11/05 03:37:13;;;;;;;0.10;0.10;;;;;;;7.62;97.37;98617.19;4950400;28;20079;-70
2023/11/05 03:39:39;;;;;;;0.10;0.10;;;;;;;7.65;97.27;98613.09;4920149;29;20048;-70
2023/11/05 03:42:07;;;;;;;0.10;0.10;;;;;;;7.67;97.17;98605.47;4921449;29;20040;-69
2023/11/05 03:44:35;;;;;;;0.10;0.10;;;;;;;7.73;97.14;98628.81;4925840;29;20043;-69
2023/11/05 03:47:01;;;;;;;0.10;0.10;;;;;;;7.73;96.68;98601.59;4923492;29;20527;-69
2023/11/05 03:49:29;;;;;;;0.10;0.10;;;;;;;7.74;96.74;98614.09;4922924;29;20065;-69
2023/11/05 03:51:58;;;;;;;0.10;0.10;;;;;;;7.78;96.58;98609.69;4921059;29;20054;-70
2023/11/05 03:54:24;;;;;;;0.10;0.10;;;;;;;7.79;96.41;98605.09;4924785;29;20101;-69
2023/11/05 03:56:50;;;;;;;0.10;0.10;;;;;;;7.82;96.34;98590.09;4920743;28;20106;-69
2023/11/05 03:59:16;;;;;;;0.10;0.10;;;;;;;7.86;96.48;98578.34;4920603;29;20055;-69
2023/11/05 04:01:47;;;;;;;0.10;0.10;;;;;;;7.91;96.20;98596.53;4921806;29;20070;-69
2023/11/05 04:04:13;;;;;;;0.10;0.10;;;;;;;7.93;96.21;98586.16;4919162;28;20074;-69
2023/11/05 04:06:41;;;;;;;0.10;0.10;;;;;;;7.96;96.16;98593.78;4920569;29;20043;-70
2023/11/05 04:09:07;;;;;;;;;;;;;;;8.00;95.86;98594.00;4922795;28;20286;-70
2023/11/05 04:11:34;;;;;;;0.10;0.10;;;;;;;7.96;95.33;98577.44;4920786;29;20026;-69
2023/11/05 04:14:00;;;;;;;0.10;0.10;;;;;;;8.01;95.18;98592.91;4920236;29;20328;-70
2023/11/05 04:16:26;;;;;;;0.10;0.10;;;;;;;8.04;95.32;98589.59;4922175;29;20051;-70
2023/11/05 04:18:52;;;;;;;0.10;0.10;;;;;;;8.01;95.16;98554.78;4924461;29;20185;-70
2023/11/05 04:21:19;;;;;;;0.10;0.10;;;;;;;8.03;95.31;98580.63;4934515;28;20172;-69
2023/11/05 04:23:47;;;;;;;0.10;0.10;;;;;;;8.07;95.04;98576.22;4922306;28;20134;-69
2023/11/05 04:26:13;;;;;;;0.10;0.10;;;;;;;8.08;94.99;98569.69;4920291;29;20051;-69
2023/11/05 04:28:40;;;;;;;0.10;0.10;;;;;;;8.11;95.23;98556.59;4917488;29;20063;-69
2023/11/05 04:31:06;;;;;;;0.10;0.10;;;;;;;8.12;94.74;98561.75;4921138;28;20147;-70
2023/11/05 04:33:32;;;;;;;0.10;0.10;;;;;;;8.12;94.70;98569.94;4920840;29;20121;-69
2023/11/05 04:35:58;;;;;;;0.10;0.10;;;;;;;8.14;94.60;98569.66;4919799;29;20055;-69
2023/11/05 04:38:25;;;;;;;0.10;0.10;;;;;;;8.14;94.77;98572.38;4920096;28;20131;-69
2023/11/05 04:40:52;;;;;;;0.10;0.10;;;;;;;8.18;94.65;98571.47;4921151;29;20074;-69
2023/11/05 04:43:19;;;;;;;0.10;0.10;;;;;;;8.19;94.40;98584.00;4919305;29;20467;-69
2023/11/05 04:45:45;;;;;;;0.10;0.10;;;;;;;8.23;94.29;98568.72;4921299;28;20094;-70
2023/11/05 04:48:11;;;;;;;0.10;0.10;;;;;;;8.24;94.42;98561.34;4935855;29;20055;-69
2023/11/05 04:50:37;;;;;;;0.10;0.10;;;;;;;8.27;93.99;98563.50;4920852;29;20512;-70
2023/11/05 04:53:03;;;;;;;0.10;0.10;;;;;;;8.25;93.75;98573.06;4923627;29;20056;-69
2023/11/05 04:55:30;;;;;;;0.10;0.10;;;;;;;8.24;93.94;98550.47;4920716;29;20062;-69
2023/11/05 04:57:58;;;;;;;0.10;0.10;;;;;;;8.26;93.80;98540.09;4920743;29;20072;-70
2023/11/05 05:00:24;;;;;;;0.10;0.10;;;;;;;8.29;93.70;98558.59;4920528;29;20044;-70
2023/11/05 05:02:51;;;;;;;0.10;0.10;;;;;;;8.29;93.74;98568.66;4920670;29;20048;-69
2023/11/05 05:05:17;;;;;;;0.05;0.05;;;;;;;8.29;93.76;98566.75;4920686;29;20047;-70
2023/11/05 05:07:43;;;;;;;0.10;0.10;;;;;;;8.32;93.83;98559.91;4924038;29;20064;-69
2023/11/05 05:10:10;;;;;;;0.10;0.10;;;;;;;8.33;93.43;98564.25;4919960;29;20067;-69
2023/11/05 05:12:36;;;;;;;0.10;0.10;;;;;;;8.35;93.14;98562.03;4920132;29;20078;-70
2023/11/05 05:15:05;;;;;;;0.10;0.10;;;;;;;8.37;93.12;98566.09;4921741;29;20074;-70
2023/11/05 05:17:34;;;;;;;0.10;0.10;;;;;;;8.37;93.12;98568.81;4919572;29;20052;-70
2023/11/05 05:20:04;;;;;;;0.10;0.10;;;;;;;8.41;93.01;98581.84;4917878;28;20072;-70
2023/11/05 05:22:31;;;;;;;0.10;0.10;;;;;;;8.42;92.96;98562.50;4933665;28;20063;-69
2023/11/05 05:24:58;;;;;;;0.10;0.10;;;;;;;8.44;92.89;98562.22;4922653;29;20047;-69
2023/11/05 05:27:25;;;;;;;0.10;0.10;;;;;;;8.40;92.79;98555.72;4920643;29;20228;-69
2023/11/05 05:29:52;;;;;;;0.10;0.10;;;;;;;8.40;92.95;98572.91;4921129;29;20048;-69
2023/11/05 05:32:20;;;;;;;0.10;0.10;;;;;;;8.40;92.69;98562.00;4922456;29;20060;-70
2023/11/05 05:34:46;;;;;;;;;;;;;;;8.43;92.77;98549.69;4924028;29;20131;-70
2023/11/05 05:37:13;;;;;;;0.10;0.10;;;;;;;8.42;92.58;98557.06;4931834;28;20019;-70
2023/11/05 05:39:39;;;;;;;;;;;;;;;8.45;92.61;98561.13;4921723;29;20047;-70
2023/11/05 05:42:06;;;;;;;0.10;0.10;;;;;;;8.45;92.40;98559.19;4919285;29;19934;-70
2023/11/05 05:44:33;;;;;;;0.10;0.10;;;;;;;8.49;92.09;98551.28;4920894;28;20072;-70
2023/11/05 05:47:00;;;;;;;0.10;0.10;;;;;;;8.50;92.21;98525.69;4917703;29;20077;-69
2023/11/05 05:49:28;;;;;;;0.10;0.10;;;;;;;8.51;92.00;98539.00;4918851;29;20052;-70
2023/11/05 05:51:54;;;;;;;0.10;0.10;;;;;;;8.50;91.89;98515.56;4920285;29;20385;-70
2023/11/05 05:54:21;;;;;;;0.10;0.10;;;;;;;8.52;92.18;98515.28;4918299;29;20119;-70
2023/11/05 05:56:48;;;;;;;0.10;0.10;;;;;;;8.56;91.76;98515.53;4922591;29;20545;-70
2023/11/05 05:59:14;;;;;;;0.10;0.10;;;;;;;8.60;91.92;98524.72;4922464;29;20052;-69
2023/11/05 06:01:40;;;;;;;0.10;0.10;;;;;;;8.59;91.03;98542.19;4918740;29;20095;-70
2023/11/05 06:04:07;;;;;;;0.10;0.10;;;;;;;8.59;91.57;98544.91;4921294;29;20162;-70
2023/11/05 06:06:36;;;;;;;0.10;0.10;;;;;;;8.58;91.49;98500.50;4922361;29;20138;-70
2023/11/05 06:09:06;;;;;;;0.10;0.10;;;;;;;8.61;91.19;98499.09;4919746;28;20087;-70
2023/11/05 06:11:33;;;;;;;0.10;0.10;;;;;;;8.61;91.25;98499.09;4919623;28;20075;-70
2023/11/05 06:13:59;;;;;;;0.10;0.10;;;;;;;8.64;91.03;98503.97;4916876;29;20043;-70
2023/11/05 06:16:26;;;;;;;0.10;0.10;;;;;;;8.68;91.16;98498.75;4919331;29;20179;-70
2023/11/05 06:18:52;;;;;;;0.10;0.10;;;;;;;8.71;90.73;98487.25;4919561;29;20062;-70
2023/11/05 06:21:18;;;;;;;0.10;0.10;;;;;;;8.71;90.67;98471.72;4920580;29;20044;-70
2023/11/05 06:23:46;;;;;;;0.10;0.10;;;;;;;8.73;90.21;98502.19;4920477;29;20178;-70
2023/11/05 06:26:12;;;;;;;0.10;0.10;;;;;;;8.73;90.24;98463.22;4922690;28;20052;-70
2023/11/05 06:28:38;;;;;;;0.10;0.10;;;;;;;8.74;90.25;98467.56;4920737;29;20135;-70
2023/11/05 06:31:05;;;;;;;0.10;0.10;;;;;;;8.76;90.23;98476.28;4919807;29;20426;-70
2023/11/05 06:33:33;;;;;;;0.10;0.10;;;;;;;8.77;89.98;98473.25;4921731;29;20580;-70
2023/11/05 06:36:01;;;;;;;0.10;0.10;;;;;;;8.76;89.77;98477.09;4923665;29;20043;-70
2023/11/05 06:38:27;;;;;;;0.10;0.10;;;;;;;8.73;89.86;98487.75;4920354;29;20598;-70
2023/11/05 06:40:55;;;;;;;0.10;0.10;;;;;;;8.78;90.10;98490.44;4902506;29;20078;-70
2023/11/05 06:43:21;;;;;;;;;;;;;;;8.82;89.42;98466.09;4919804;29;20269;-70
2023/11/05 06:45:47;;;;;;;0.10;0.10;;;;;;;8.85;89.09;98462.81;4918582;29;19927;-70
2023/11/05 06:48:14;;;;;;;0.10;0.10;;;;;;;8.84;89.26;98489.22;4919453;29;20259;-70
2023/11/05 06:50:40;;;;;;;0.10;0.10;;;;;;;8.87;89.27;98485.91;4921491;29;20082;-70
2023/11/05 06:53:06;;;;;;;0.10;0.10;;;;;;;8.90;89.14;98484.53;4917436;28;20142;-70
2023/11/05 06:55:32;;;;;;;0.10;0.10;;;;;;;8.91;88.87;98467.06;4917698;28;20047;-70
2023/11/05 06:58:00;;;;;;;0.10;0.10;;;;;;;9.03;88.37;98477.50;4934949;28;20040;-70
2023/11/05 07:00:26;;;;;;;0.10;0.10;;;;;;;9.03;88.47;98480.22;4938811;28;20094;-70
2023/11/05 07:02:53;;;;;;;0.10;0.10;;;;;;;9.03;88.29;98478.31;4937502;29;20121;-70
2023/11/05 07:05:20;;;;;;;0.10;0.10;;;;;;;9.07;88.45;98454.81;4936465;29;20159;-70
2023/11/05 07:07:46;;;;;;;;;;;;;;;9.10;87.98;98456.13;4934714;29;20124;-70
2023/11/05 07:10:12;;;;;;;0.10;0.10;;;;;;;9.16;87.82;98470.50;4921516;29;19998;-69
2023/11/05 07:12:41;;;;;;;0.10;0.10;;;;;;;9.21;87.31;98456.78;4934547;29;20052;-70
2023/11/05 07:15:10;;;;;;;0.10;0.10;;;;;;;9.27;87.15;98466.47;4918605;29;20558;-69
2023/11/05 07:17:37;;;;;;;0.10;0.10;;;;;;;9.30;86.79;98443.25;4915377;28;20135;-70
2023/11/05 07:20:06;;;;;;;0.10;0.10;;;;;;;9.32;86.23;98443.75;4924130;28;20050;-69
2023/11/05 07:22:32;;;;;;;0.10;0.10;;;;;;;9.32;86.58;98438.31;4918631;29;20109;-69
2023/11/05 07:24:58;;;;;;;0.10;0.10;;;;;;;9.32;86.36;98425.50;4932100;28;20453;-70
2023/11/05 07:27:24;;;;;;;0.10;0.10;;;;;;;9.32;86.24;98408.31;4922922;29;20138;-69
2023/11/05 07:29:50;;;;;;;0.10;0.10;;;;;;;9.40;86.21;98410.34;4918189;29;20376;-69
2023/11/05 07:32:18;;;;;;;0.10;0.10;;;;;;;9.42;86.23;98418.22;4919326;29;20051;-69
2023/11/05 07:34:44;;;;;;;0.20;0.20;;;;;;;9.39;85.88;98405.19;4922963;29;20079;-69
2023/11/05 07:37:10;;;;;;;0.10;0.10;;;;;;;9.32;86.33;98411.03;4919238;28;20047;-69
2023/11/05 07:39:36;;;;;;;0.10;0.10;;;;;;;9.41;85.95;98436.50;4902966;28;20158;-69
2023/11/05 07:42:03;;;;;;;0.10;0.10;;;;;;;9.46;85.92;98421.97;4923788;29;20073;-69
2023/11/05 07:44:33;;;;;;;0.10;0.10;;;;;;;9.50;84.94;98425.72;4934679;29;20363;-69
2023/11/05 07:46:59;;;;;;;0.10;0.10;;;;;;;9.48;84.96;98422.47;4921179;29;20051;-69
2023/11/05 07:49:27;;;;;;;1.15;0.10;;;;;;;9.52;84.94;98418.03;4920350;29;20139;-69
2023/11/05 07:51:53;;;;;;;;;;;;;;;9.51;84.57;98441.75;4921286;29;20051;-70
2023/11/05 07:54:19;;;;;;;0.10;0.10;;;;;;;9.51;84.50;98432.78;4935365;29;19949;-69
2023/11/05 07:56:45;;;;;;;0.10;0.10;;;;;;;9.47;84.71;98456.34;4921248;28;20052;-69
2023/11/05 07:59:11;;;;;;;0.10;0.10;;;;;;;9.53;85.07;98432.50;4919006;29;20054;-70
2023/11/05 08:01:38;;;;;;;0.10;0.10;;;;;;;9.53;84.54;98440.69;4930984;29;20515;-69
2023/11/05 08:04:10;;;;;;;0.10;0.10;;;;;;;9.53;84.55;98438.75;4236693;28;10000331;-69
2023/11/05 08:06:44;;;;;;;0.10;0.10;;;;;;;9.56;84.46;98451.00;4890490;28;20105;-69
2023/11/05 08:09:11;;;;;;;0.10;0.10;;;;;;;9.62;84.22;98434.22;4915867;29;20078;-69
2023/11/05 08:11:38;;;;;;;0.13;0.13;;;;;;;9.75;83.76;98448.16;4930600;29;20040;-70
2023/11/05 08:14:05;;;;;;;0.10;0.10;;;;;;;9.82;83.43;98431.38;4920461;28;20043;-69
2023/11/05 08:16:31;;;;;;;0.10;0.10;;;;;;;9.90;83.00;98426.03;4919113;29;20195;-69
2023/11/05 08:18:58;;;;;;;0.10;0.10;;;;;;;9.90;82.44;98447.88;4920216;29;20145;-69
2023/11/05 08:21:25;;;;;;;0.10;0.10;;;;;;;9.88;82.51;98422.78;4921625;28;20574;-69
2023/11/05 08:23:52;;;;;;;0.10;0.10;;;;;;;9.90;82.46;98417.03;4917067;29;20047;-69
2023/11/05 08:26:18;;;;;;;;;;;;;;;9.87;82.29;98412.97;4935219;29;20138;-69
2023/11/05 08:28:45;;;;;;;0.20;0.13;;;;;;;9.90;82.49;98406.13;4919397;29;19927;-69
2023/11/05 08:31:11;;;;;;;0.10;0.10;;;;;;;9.92;82.27;98420.28;4930741;29;20134;-70
2023/11/05 08:33:39;;;;;;;0.13;0.13;;;;;;;9.86;81.76;98395.00;4922405;29;20048;-69
2023/11/05 08:36:07;;;;;;;0.10;0.10;;;;;;;9.89;81.72;98379.94;4920518;28;20044;-69
2023/11/05 08:38:33;;;;;;;0.20;0.20;;;;;;;9.89;81.52;98377.19;4920997;29;20048;-69
2023/11/05 08:41:01;;;;;;;0.10;0.10;;;;;;;9.88;81.66;98375.59;4935633;28;20133;-69
2023/11/05 08:43:27;;;;;;;0.10;0.10;;;;;;;9.90;81.74;98346.06;4921162;29;20122;-69
2023/11/05 08:45:54;;;;;;;0.10;0.10;;;;;;;9.96;81.21;98336.63;4922001;29;20056;-70
2023/11/05 08:48:20;;;;;;;0.10;0.10;;;;;;;10.05;81.01;98339.44;4920278;29;20461;-69
2023/11/05 08:50:46;;;;;;;0.10;0.10;;;;;;;10.14;80.22;98342.25;4918855;29;20613;-69
2023/11/05 08:53:13;;;;;;;0.10;0.10;;;;;;;10.26;79.80;98333.53;4935656;29;20134;-69
2023/11/05 08:55:39;;;;;;;0.10;0.10;;;;;;;10.40;78.75;98308.88;4916619;29;20059;-69
2023/11/05 08:58:07;;;;;;;0.20;0.20;;;;;;;10.77;77.49;98310.47;4921231;29;20048;-69
2023/11/05 09:00:34;;;;;;;0.20;0.20;;;;;;;11.40;74.46;98306.09;4920642;29;20105;-69
2023/11/05 09:03:01;;;;;;;0.20;0.20;;;;;;;11.73;72.11;98300.22;4920020;29;20583;-69
2023/11/05 09:05:28;;;;;;;0.20;0.20;;;;;;;11.69;72.70;98308.25;4920038;29;20082;-69
2023/11/05 09:07:57;;;;;;;0.20;0.20;;;;;;;12.01;71.51;98324.59;4923661;29;20431;-69
2023/11/05 09:10:26;;;;;;;0.20;0.20;;;;;;;11.88;70.87;98313.44;4920714;28;20043;-69
2023/11/05 09:12:54;;;;;;;0.20;0.20;;;;;;;11.97;70.83;98318.13;4972847;23;20144;-69
2023/11/05 09:15:25;;;;;;;0.20;0.20;;;;;;;11.88;71.08;98315.38;4950063;28;20541;-69
2023/11/05 09:17:51;;;;;;;0.20;0.20;;;;;;;12.05;70.03;98309.16;4940348;28;20425;-69
2023/11/05 09:20:19;;;;;;;0.28;0.28;;;;;;;12.11;70.02;98313.34;4943431;28;20059;-69
2023/11/05 09:22:46;;;;;;;0.20;0.20;;;;;;;11.74;71.01;98305.38;4953342;28;20067;-69
2023/11/05 09:25:14;;;;;;;0.10;0.10;;;;;;;11.43;72.19;98317.22;4940339;28;20055;-69
2023/11/05 09:27:40;;;;;;;;;;;;;;;11.29;73.45;98295.41;4945832;28;20043;-70
2023/11/05 09:30:11;;;;;;;0.20;0.20;;;;;;;11.40;73.29;98303.34;4929200;28;20342;-69
2023/11/05 09:32:40;;;;;;;0.20;0.20;;;;;;;11.39;72.80;98301.72;4922820;28;20537;-69
2023/11/05 09:35:07;;;;;;;;;;;;;;;11.33;73.53;98285.47;4943407;28;20070;-69
2023/11/05 09:37:34;;;;;;;0.20;0.20;;;;;;;11.52;72.70;98275.34;4940931;28;19937;-69
2023/11/05 09:40:01;;;;;;;0.20;0.20;;;;;;;11.65;72.13;98263.47;4949239;28;20051;-69
2023/11/05 09:42:31;;;;;;;0.10;0.10;;;;;;;11.59;72.31;98292.94;4945580;28;20538;-69
2023/11/05 09:45:01;;;;;;;0.20;0.20;;;;;;;11.44;72.75;98276.94;4946221;28;20054;-69
2023/11/05 09:47:32;;;;;;;0.20;0.20;;;;;;;11.33;73.50;98292.84;4972985;28;20134;-69
2023/11/05 09:50:00;;;;;;;0.10;0.10;;;;;;;11.21;73.96;98288.00;4943920;28;20073;-69
2023/11/05 09:52:28;;;;;;;;;;;;;;;11.25;74.15;98299.91;4923987;29;20086;-69
2023/11/05 09:54:54;;;;;;;0.20;0.20;;;;;;;11.32;73.75;98305.75;4940754;28;19932;-69
2023/11/05 09:57:20;;;;;;;0.20;0.20;;;;;;;11.43;73.65;98299.97;4942542;28;20142;-69
2023/11/05 09:59:48;;;;;;;0.32;0.32;;;;;;;11.80;72.80;98280.56;4945358;28;20472;-70
2023/11/05 10:02:15;;;;;;;0.30;0.30;;;;;;;12.09;71.24;98270.97;5022790;28;20046;-68
2023/11/05 10:04:41;;;;;;;0.30;0.30;;;;;;;12.53;69.99;98266.25;4943493;28;20088;-69
2023/11/05 10:07:09;;;;;;;0.50;0.50;;;;;;;13.01;68.22;98252.56;4938988;28;20074;-69
2023/11/05 10:09:35;;;;;;;0.40;0.40;;;;;;;13.54;65.52;98222.13;4930879;28;20043;-69
2023/11/05 10:12:03;;;;;;;0.20;0.20;;;;;;;13.86;64.33;98179.41;4931183;28;20078;-69
2023/11/05 10:14:29;;;;;;;0.20;0.20;;;;;;;13.48;65.22;98172.09;4930159;28;20059;-69
2023/11/05 10:16:56;;;;;;;0.30;0.30;;;;;;;12.88;67.33;98211.31;4935697;28;20475;-69
2023/11/05 10:19:23;;;;;;;0.20;0.20;;;;;;;12.34;69.17;98229.03;4934697;28;20576;-69
2023/11/05 10:21:50;;;;;;;0.20;0.20;;;;;;;12.04;70.73;98245.34;4941813;28;20474;-69
2023/11/05 10:24:17;;;;;;;0.20;0.20;;;;;;;11.96;71.63;98234.38;4938228;28;20447;-69
2023/11/05 10:26:49;;;;;;;0.20;0.20;;;;;;;12.00;71.25;98232.59;4937417;28;20142;-69
2023/11/05 10:29:15;;;;;;;0.20;0.20;;;;;;;11.96;71.40;98215.97;4938554;28;20051;-69
2023/11/05 10:31:43;;;;;;;0.20;0.20;;;;;;;12.21;71.20;98232.78;4940279;28;20039;-69
2023/11/05 10:34:09;;;;;;;0.20;0.20;;;;;;;12.26;71.09;98226.31;4937733;28;20047;-69
2023/11/05 10:36:36;;;;;;;0.20;0.20;;;;;;;12.28;70.42;98245.97;4938948;28;20036;-69
2023/11/05 10:39:02;;;;;;;0.20;0.20;;;;;;;12.07;71.31;98237.59;4942168;28;20051;-69
2023/11/05 10:41:30;;;;;;;0.20;0.20;;;;;;;11.94;71.77;98236.59;4946267;28;20058;-69
2023/11/05 10:43:59;;;;;;;0.10;0.10;;;;;;;11.86;72.14;98239.03;4948843;28;20646;-69
2023/11/05 10:46:26;;;;;;;0.10;0.10;;;;;;;11.88;72.40;98239.50;4947641;28;20457;-69
2023/11/05 10:48:53;;;;;;;;;;;;;;;11.93;72.08;98219.38;4960784;28;20055;-69
2023/11/05 10:51:22;;;;;;;0.15;0.15;;;;;;;11.90;72.01;98239.97;4954775;28;19926;-68
2023/11/05 10:53:49;;;;;;;0.10;0.10;;;;;;;11.86;72.37;98216.28;4940908;28;20054;-70
2023/11/05 10:56:31;;;;;;;0.20;0.20;;;;;;;11.87;72.35;98228.88;4991333;28;20072;-69
2023/11/05 10:58:57;;;;;;;0.10;0.10;;;;;;;11.89;72.52;98199.25;5039750;28;20136;-69
2023/11/05 11:01:29;;;;;;;0.10;0.10;;;;;;;11.88;72.50;98203.13;4967440;28;20107;-69
2023/11/05 11:04:03;;;;;;;0.17;0.17;;;;;;;11.92;72.71;98210.34;4934458;28;20086;-70
2023/11/05 11:06:30;;;;;;;0.20;0.20;;;;;;;11.98;72.48;98219.19;4934712;28;20083;-69
2023/11/05 11:09:09;;;;;;;0.80;0.30;;;;;;;12.05;72.35;98226.97;4937431;28;20204;-69
2023/11/05 11:11:39;;;;;;;0.20;0.20;;;;;;;12.11;71.80;98258.56;4935868;28;20588;-69
2023/11/05 11:14:05;;;;;;;0.20;0.20;;;;;;;12.08;71.67;98255.66;4938230;28;20101;-70
2023/11/05 11:16:37;;;;;;;0.10;0.10;;;;;;;12.00;71.41;98273.66;4937353;28;20051;-69
2023/11/05 11:19:07;;;;;;;0.10;0.10;;;;;;;11.92;71.97;98256.91;4936896;28;20096;-70
2023/11/05 11:21:37;;;;;;;0.10;0.10;;;;;;;11.91;72.19;98227.09;4916572;28;20047;-70
2023/11/05 11:24:24;;;;;;;0.20;0.20;;;;;;;11.84;71.75;98241.28;4949196;28;20055;-71
2023/11/05 11:26:52;;;;;;;0.20;0.20;;;;;;;11.78;72.35;98243.38;4945514;28;20109;-70
2023/11/05 11:29:18;;;;;;;;;;;;;;;11.78;72.66;98269.94;4919919;28;20048;-70
2023/11/05 11:31:44;;;;;;;0.10;0.10;;;;;;;11.72;72.64;98269.31;4947298;28;19935;-70
2023/11/05 11:34:10;;;;;;;0.20;0.20;;;;;;;11.70;72.72;98254.31;4946395;28;20434;-70
2023/11/05 11:36:40;;;;;;;0.10;0.10;;;;;;;11.70;73.02;98232.41;4942641;28;20133;-70
2023/11/05 11:39:06;;;;;;;0.10;0.10;;;;;;;11.69;73.30;98248.00;4941784;28;20047;-70
2023/11/05 11:41:38;;;;;;;0.10;0.10;;;;;;;11.70;73.21;98238.69;4938219;28;20138;-70